createdAt,value
2023-03-03T00:04:11.785Z,96.76
2023-03-03T00:09:14.763Z,97.89
2023-03-03T00:14:23.212Z,100.00
2023-03-03T00:19:27.456Z,100.00
2023-03-03T00:24:38.401Z,100.00
2023-03-03T00:29:46.968Z,100.00
2023-03-03T00:34:51.828Z,99.43
2023-03-03T00:39:55.308Z,98.90
2023-03-03T00:44:59.336Z,99.35
2023-03-03T00:50:26.933Z,100.00
2023-03-03T00:55:30.675Z,100.00
2023-03-03T01:00:34.434Z,100.00
2023-03-03T01:05:40.058Z,100.00
2023-03-03T01:10:47.025Z,100.00
2023-03-03T01:15:50.050Z,100.00
2023-03-03T01:20:54.411Z,100.00
2023-03-03T01:25:57.441Z,100.00
2023-03-03T01:31:02.295Z,100.00
2023-03-03T01:36:07.947Z,100.00
2023-03-03T01:41:10.875Z,100.00
2023-03-03T01:46:42.120Z,100.00
2023-03-03T01:51:51.757Z,100.00
2023-03-03T01:56:59.698Z,100.00
2023-03-03T02:02:02.718Z,100.00
2023-03-03T02:07:11.102Z,100.00
2023-03-03T02:12:18.000Z,100.00
2023-03-03T02:17:21.282Z,100.00
2023-03-03T02:22:40.247Z,100.00
2023-03-03T02:27:44.697Z,100.00
2023-03-03T02:32:48.549Z,100.00
2023-03-03T02:37:51.586Z,100.00
2023-03-03T02:42:59.496Z,100.00
2023-03-03T02:48:02.522Z,100.00
2023-03-03T02:53:05.501Z,100.00
2023-03-03T02:58:10.730Z,100.00
2023-03-03T03:03:13.719Z,100.00
2023-03-03T03:08:16.823Z,100.00
2023-03-03T03:13:21.210Z,100.00
2023-03-03T03:18:25.205Z,100.00
2023-03-03T03:23:30.629Z,100.00
2023-03-03T03:28:36.006Z,100.00
2023-03-03T03:33:38.947Z,100.00
2023-03-03T03:38:43.200Z,100.00
2023-03-03T03:43:48.632Z,100.00
2023-03-03T03:48:52.168Z,100.00
2023-03-03T03:53:57.642Z,100.00
2023-03-03T03:59:01.955Z,100.00
2023-03-03T04:04:05.384Z,100.00
2023-03-03T04:09:08.927Z,100.00
2023-03-03T04:14:13.323Z,100.00
2023-03-03T04:19:16.465Z,100.00
2023-03-03T04:24:20.436Z,100.00
2023-03-03T04:29:27.827Z,100.00
2023-03-03T04:34:31.461Z,100.00
2023-03-03T04:39:34.499Z,100.00
2023-03-03T04:44:39.174Z,100.00
2023-03-03T04:49:42.847Z,100.00
2023-03-03T04:54:46.152Z,100.00
2023-03-03T04:59:51.530Z,100.00
2023-03-03T05:04:55.285Z,100.00
2023-03-03T05:09:58.210Z,100.00
2023-03-03T05:15:02.750Z,100.00
2023-03-03T05:20:08.443Z,100.00
2023-03-03T05:25:12.767Z,100.00
2023-03-03T05:30:17.284Z,100.00
2023-03-03T05:35:20.761Z,100.00
2023-03-03T05:40:23.885Z,100.00
2023-03-03T05:45:28.236Z,100.00
2023-03-03T05:50:31.371Z,100.00
2023-03-03T05:55:34.468Z,100.00
2023-03-03T06:00:39.027Z,100.00
2023-03-03T06:05:41.981Z,100.00
2023-03-03T06:10:45.138Z,100.00
2023-03-03T06:15:51.835Z,100.00
2023-03-03T06:20:55.212Z,100.00
2023-03-03T06:25:58.177Z,100.00
2023-03-03T06:31:02.631Z,100.00
2023-03-03T06:36:05.999Z,100.00
2023-03-03T06:41:08.997Z,100.00
2023-03-03T06:46:13.387Z,100.00
2023-03-03T06:51:24.568Z,100.00
2023-03-03T06:56:28.320Z,100.00
2023-03-03T07:01:37.944Z,100.00
2023-03-03T07:06:40.912Z,100.00
2023-03-03T07:11:46.250Z,100.00
2023-03-03T07:16:57.874Z,100.00
2023-03-03T07:22:03.294Z,100.00
2023-03-03T07:27:13.605Z,100.00
2023-03-03T07:32:39.167Z,100.00
2023-03-03T07:37:43.918Z,100.00
2023-03-03T07:42:46.889Z,100.00
2023-03-03T07:48:21.286Z,100.00
2023-03-03T07:53:29.056Z,100.00
2023-03-03T07:58:38.549Z,100.00
2023-03-03T08:03:44.896Z,100.00
2023-03-03T08:08:47.798Z,100.00
2023-03-03T08:13:50.673Z,100.00
2023-03-03T08:18:55.414Z,100.00
2023-03-03T08:23:58.349Z,100.00
2023-03-03T08:29:01.277Z,100.00
2023-03-03T08:34:05.624Z,100.00
2023-03-03T08:39:09.390Z,100.00
2023-03-03T08:44:12.660Z,100.00
2023-03-03T08:49:17.084Z,100.00
2023-03-03T08:54:20.103Z,100.00
2023-03-03T08:59:23.264Z,100.00
2023-03-03T09:04:27.626Z,100.00
2023-03-03T09:09:30.670Z,100.00
2023-03-03T09:14:33.545Z,100.00
2023-03-03T09:19:38.532Z,100.00
2023-03-03T09:24:43.815Z,100.00
2023-03-03T09:29:47.057Z,100.00
2023-03-03T09:34:52.343Z,100.00
2023-03-03T09:39:57.485Z,100.00
2023-03-03T09:45:37.245Z,100.00
2023-03-03T09:50:54.513Z,100.00
2023-03-03T09:56:04.513Z,100.00
2023-03-03T10:01:26.086Z,100.00
2023-03-03T10:06:37.120Z,100.00
2023-03-03T10:11:51.968Z,100.00
2023-03-03T10:17:17.109Z,99.24
2023-03-03T10:22:28.615Z,97.74
2023-03-03T10:27:56.528Z,99.47
2023-03-03T10:33:03.381Z,100.00
2023-03-03T10:38:45.741Z,100.00
2023-03-03T10:44:01.914Z,100.00
2023-03-03T10:49:34.758Z,100.00
2023-03-03T10:55:07.444Z,100.00
2023-03-03T11:00:22.649Z,100.00
2023-03-03T11:05:37.984Z,100.00
2023-03-03T11:10:53.853Z,100.00
2023-03-03T11:16:14.866Z,100.00
2023-03-03T11:21:25.941Z,99.04
2023-03-03T11:26:46.359Z,98.68
2023-03-03T11:31:55.731Z,100.00
2023-03-03T11:37:08.582Z,98.71
2023-03-03T11:42:23.873Z,99.31
2023-03-03T11:47:32.143Z,96.57
2023-03-03T11:52:45.581Z,98.59
2023-03-03T11:57:53.744Z,100.00
2023-03-03T12:03:15.558Z,100.00
2023-03-03T12:08:30.298Z,98.77
2023-03-03T12:13:48.139Z,99.73
2023-03-03T12:19:04.777Z,97.76
2023-03-03T12:24:29.145Z,97.46
2023-03-03T12:29:46.803Z,96.41
2023-03-03T12:34:55.363Z,96.14
2023-03-03T12:40:07.422Z,95.84
2023-03-03T12:45:25.351Z,94.63
2023-03-03T12:50:48.133Z,92.59
2023-03-03T12:55:54.794Z,93.10
2023-03-03T13:01:08.361Z,90.96
2023-03-03T13:06:20.851Z,91.97
2023-03-03T13:11:43.640Z,91.76
2023-03-03T13:17:00.336Z,94.68
2023-03-03T13:22:12.796Z,92.95
2023-03-03T13:27:20.754Z,93.37
2023-03-03T13:32:37.493Z,92.26
2023-03-03T13:37:45.893Z,90.44
2023-03-03T13:42:54.696Z,88.81
2023-03-03T13:48:09.726Z,89.01
2023-03-03T13:53:34.429Z,87.73
2023-03-03T13:58:50.694Z,86.73
2023-03-03T14:04:06.406Z,86.84
2023-03-03T14:09:26.983Z,85.55
2023-03-03T14:14:45.540Z,87.32
2023-03-03T14:20:03.473Z,89.47
2023-03-03T14:25:09.953Z,88.68
2023-03-03T14:30:34.053Z,88.21
2023-03-03T14:35:41.682Z,86.76
2023-03-03T14:40:46.344Z,86.06
2023-03-03T14:45:49.409Z,87.28
2023-03-03T14:50:58.297Z,86.26
2023-03-03T14:56:18.232Z,87.13
2023-03-03T15:01:32.764Z,86.93
2023-03-03T15:06:42.070Z,88.32
2023-03-03T15:11:48.340Z,85.41
2023-03-03T15:16:51.956Z,86.06
2023-03-03T15:22:02.543Z,85.59
2023-03-03T15:27:12.009Z,85.03
2023-03-03T15:32:22.527Z,85.53
2023-03-03T15:37:42.485Z,85.61
2023-03-03T15:42:50.375Z,86.40
2023-03-03T15:48:08.333Z,86.41
2023-03-03T15:53:35.737Z,86.06
2023-03-03T15:59:00.206Z,87.78
2023-03-03T16:04:07.929Z,90.06
2023-03-03T16:09:25.840Z,89.05
2023-03-03T16:14:45.990Z,89.10
2023-03-03T16:19:57.008Z,89.11
2023-03-03T16:25:30.561Z,87.88
2023-03-03T16:30:38.937Z,88.97
2023-03-03T16:35:50.406Z,92.07
2023-03-03T16:40:57.796Z,90.01
2023-03-03T16:46:06.072Z,89.93
2023-03-03T16:51:18.994Z,89.36
2023-03-03T16:56:29.728Z,89.86
2023-03-03T17:01:43.178Z,90.52
2023-03-03T17:06:51.225Z,90.12
2023-03-03T17:12:04.000Z,90.75
2023-03-03T17:17:15.914Z,90.40
2023-03-03T17:22:27.662Z,90.49
2023-03-03T17:27:44.449Z,90.42
2023-03-03T17:33:15.090Z,90.94
2023-03-03T17:38:28.905Z,91.16
2023-03-03T17:43:40.351Z,90.56
2023-03-03T17:49:11.292Z,90.74
2023-03-03T17:54:26.153Z,90.50
2023-03-03T17:59:43.719Z,91.25
2023-03-03T18:05:06.655Z,91.22
2023-03-03T18:10:41.387Z,91.66
2023-03-03T18:16:12.120Z,91.93
2023-03-03T18:21:17.740Z,92.33
2023-03-03T18:26:36.047Z,92.44
2023-03-03T18:31:51.280Z,91.84
2023-03-03T18:36:55.537Z,92.66
2023-03-03T18:42:12.230Z,93.28
2023-03-03T18:47:17.534Z,93.08
2023-03-03T18:52:27.693Z,94.03
2023-03-03T18:57:30.786Z,94.13
2023-03-03T19:02:46.316Z,94.45
2023-03-03T19:07:58.045Z,94.44
2023-03-03T19:13:01.126Z,94.53
2023-03-03T19:18:14.671Z,94.13
2023-03-03T19:23:20.471Z,94.06
2023-03-03T19:28:38.415Z,94.27
2023-03-03T19:33:54.587Z,94.28
2023-03-03T19:39:22.678Z,96.64
2023-03-03T19:44:40.957Z,94.74
2023-03-03T19:50:07.768Z,95.85
2023-03-03T19:55:25.715Z,93.96
2023-03-03T20:00:36.155Z,94.62
2023-03-03T20:05:47.015Z,94.79
2023-03-03T20:10:58.300Z,94.37
2023-03-03T20:16:11.134Z,94.39
2023-03-03T20:21:27.653Z,94.51
2023-03-03T20:26:35.233Z,94.82
2023-03-03T20:31:47.057Z,94.60
2023-03-03T20:37:01.289Z,94.69
2023-03-03T20:42:16.102Z,95.33
2023-03-03T20:47:31.908Z,95.51
2023-03-03T20:52:43.274Z,94.66
2023-03-03T20:57:54.830Z,94.90
2023-03-03T21:03:10.304Z,95.42
2023-03-03T21:08:14.578Z,94.42
2023-03-03T21:13:29.474Z,94.90
2023-03-03T21:18:32.420Z,94.58
2023-03-03T21:23:36.729Z,95.27
2023-03-03T21:28:39.696Z,94.53
2023-03-03T21:33:48.791Z,94.39
2023-03-03T21:38:54.689Z,94.48
2023-03-03T21:43:57.607Z,94.42
2023-03-03T21:49:00.535Z,94.47
2023-03-03T21:54:05.015Z,95.32
2023-03-03T21:59:08.040Z,94.86
2023-03-03T22:04:11.020Z,94.57
2023-03-03T22:09:15.601Z,95.61
2023-03-03T22:14:18.543Z,94.90
2023-03-03T22:19:21.530Z,95.31
2023-03-03T22:24:25.771Z,94.67
2023-03-03T22:29:29.230Z,95.02
2023-03-03T22:34:32.110Z,94.70
2023-03-03T22:39:36.362Z,95.42
2023-03-03T22:44:39.901Z,95.71
2023-03-03T22:49:42.777Z,94.90
2023-03-03T22:54:47.045Z,94.95
2023-03-03T22:59:49.949Z,94.92
2023-03-03T23:04:58.192Z,94.75
2023-03-03T23:10:03.367Z,95.25
2023-03-03T23:15:13.243Z,95.10
2023-03-03T23:20:18.682Z,94.41
2023-03-03T23:25:24.020Z,95.30
2023-03-03T23:30:27.442Z,93.91
2023-03-03T23:35:30.524Z,94.38
2023-03-03T23:40:34.879Z,94.74
2023-03-03T23:45:37.723Z,94.94
2023-03-03T23:50:40.663Z,94.72
2023-03-03T23:55:45.638Z,94.45
